Time;durP1;ratioP1;P1;durP2;ratioP2;P2;SDS_P1;SDS_P2;PMS_P1;PMS_P2;Temp;Humidity;BMP_temperature;BMP_pressure;BME280_temperature;BME280_humidity;BME280_pressure;Samples;Min_cycle;Max_cycle;Signal;HPM_P1;HPM_P2
2022/05/05 00:01:11;;;;;;;;;;;16.20;60.90;;;;;;5090115;28;19939;-75
2022/05/05 00:03:41;;;;;;;;;;;16.20;60.90;;;;;;5090348;28;20349;-75
2022/05/05 00:06:08;;;;;;;;;;;16.20;60.90;;;;;;5078355;28;19952;-76
2022/05/05 00:08:38;;;;;;;;;;;16.20;60.90;;;;;;5092497;28;19963;-75
2022/05/05 00:16:38;;;;;;;;;;;16.20;60.90;;;;;;5114788;27;19927;-75
2022/05/05 00:19:05;;;;;;;;;;;16.20;60.90;;;;;;5092380;28;19919;-74
2022/05/05 00:21:51;;;;;;;;;;;16.20;60.90;;;;;;5089645;28;20398;-75
2022/05/05 00:24:24;;;;;;;;;;;16.20;60.90;;;;;;5083557;28;19927;-74
2022/05/05 00:26:51;;;;;;;;;;;16.20;60.90;;;;;;5088632;28;19939;-73
2022/05/05 00:29:26;;;;;;;;;;;16.20;60.90;;;;;;5079814;27;20344;-75
2022/05/05 00:31:52;;;;;;;;;;;16.20;60.90;;;;;;5092398;28;19928;-76
2022/05/05 00:34:19;;;;;;;;;;;16.20;60.90;;;;;;5092678;28;20024;-74
2022/05/05 00:36:49;;;;;;;;;;;16.20;60.90;;;;;;5080785;28;19927;-74
2022/05/05 00:39:16;;;;;;;;;;;16.20;60.90;;;;;;5086923;28;19924;-74
2022/05/05 00:41:51;;;;;;;;;;;16.20;60.90;;;;;;5084007;28;19928;-74
2022/05/05 00:44:18;;;;;;;;;;;16.20;60.90;;;;;;5093235;28;19920;-73
2022/05/05 00:46:50;;;;;;;;;;;16.20;60.90;;;;;;5086102;28;20263;-75
2022/05/05 00:49:17;;;;;;;;;;;16.20;60.90;;;;;;5082569;28;19920;-76
2022/05/05 00:51:44;;;;;;;;;;;16.20;60.90;;;;;;5089767;28;19927;-75
2022/05/05 00:54:11;;;;;;;;;;;16.20;60.90;;;;;;5081758;28;20436;-73
2022/05/05 00:56:47;;;;;;;;;;;16.20;60.90;;;;;;5093530;28;20441;-76
2022/05/05 00:59:21;;;;;;;;;;;16.20;60.90;;;;;;5084797;28;19989;-73
2022/05/05 01:01:48;;;;;;;;;;;16.20;60.90;;;;;;5086382;28;19968;-74
2022/05/05 01:04:16;;;;;;;;;;;16.20;60.90;;;;;;5085878;28;20401;-74
2022/05/05 01:06:43;;;;;;;;;;;16.20;60.90;;;;;;5084771;28;19980;-74
2022/05/05 01:09:16;;;;;;;;;;;16.20;60.90;;;;;;5083016;28;19924;-75
2022/05/05 01:11:43;;;;;;;;;;;16.20;60.90;;;;;;5087910;28;19930;-74
2022/05/05 01:14:10;;;;;;;;;;;16.20;61.00;;;;;;5097037;28;19924;-76
2022/05/05 01:16:37;;;;;;;;;;;16.20;61.00;;;;;;5081455;28;19920;-75
2022/05/05 01:19:05;;;;;;;;;;;16.20;60.90;;;;;;5087429;28;19919;-75
2022/05/05 01:21:36;;;;;;;;;;;16.20;60.90;;;;;;5089735;28;19947;-75
2022/05/05 01:24:06;;;;;;;;;;;16.20;60.90;;;;;;5098208;28;19977;-74
2022/05/05 01:29:25;;;;;;;;;;;16.20;60.90;;;;;;5118015;27;20088;-75
2022/05/05 01:31:51;;;;;;;;;;;16.20;60.90;;;;;;5087711;28;19959;-75
2022/05/05 01:34:19;;;;;;;;;;;16.20;60.90;;;;;;5091659;28;19920;-74
2022/05/05 01:36:46;;;;;;;;;;;16.20;61.00;;;;;;5088169;28;19961;-75
2022/05/05 01:39:13;;;;;;;;;;;16.20;60.90;;;;;;5088133;28;20266;-73
2022/05/05 01:41:41;;;;;;;;;;;16.20;60.90;;;;;;5083052;28;20031;-73
2022/05/05 01:44:08;;;;;;;;;;;16.20;60.90;;;;;;5093167;28;19927;-74
2022/05/05 01:46:35;;;;;;;;;;;16.20;61.00;;;;;;5091400;28;19919;-75
2022/05/05 01:49:12;;;;;;;;;;;16.20;60.90;;;;;;5091734;28;19927;-74
2022/05/05 01:51:39;;;;;;;;;;;16.20;60.90;;;;;;5084886;28;20224;-73
2022/05/05 01:54:16;;;;;;;;;;;16.20;60.90;;;;;;5086543;28;20601;-74
2022/05/05 01:56:51;;;;;;;;;;;16.20;60.90;;;;;;5088519;28;20157;-75
2022/05/05 01:59:20;;;;;;;;;;;16.20;60.90;;;;;;5100394;28;19920;-73
2022/05/05 02:01:47;;;;;;;;;;;16.20;60.90;;;;;;5084396;28;20010;-74
2022/05/05 02:04:13;;;;;;;;;;;16.40;61.20;;;;;;5087058;27;19919;-74
2022/05/05 02:06:40;;;;;;;;;;;16.20;60.90;;;;;;5067029;28;20600;-74
2022/05/05 02:09:10;;;;;;;;;;;16.20;60.90;;;;;;5088669;28;19931;-75
2022/05/05 02:11:41;;;;;;;;;;;16.20;60.90;;;;;;5094351;27;19931;-74
2022/05/05 02:14:08;;;;;;;;;;;16.20;60.90;;;;;;5098445;27;20022;-76
2022/05/05 02:16:35;;;;;;;;;;;16.20;61.00;;;;;;5090595;28;19963;-74
2022/05/05 02:19:01;;;;;;;;;;;16.20;61.00;;;;;;5093395;28;19926;-75
2022/05/05 02:21:36;;;;;;;;;;;16.20;61.70;;;;;;5085874;28;19919;-74
2022/05/05 02:24:03;;;;;;;;;;;16.20;60.90;;;;;;5086524;27;20356;-74
2022/05/05 02:26:30;;;;;;;;;;;16.20;60.90;;;;;;5099187;27;20364;-73
2022/05/05 02:29:06;;;;;;;;;;;16.10;60.80;;;;;;5083889;27;19934;-73
2022/05/05 02:31:32;;;;;;;;;;;16.20;61.00;;;;;;5082889;28;19933;-75
2022/05/05 02:34:04;;;;;;;;;;;16.20;60.90;;;;;;5081370;28;19930;-75
2022/05/05 02:39:35;;;;;;;;;;;16.20;61.00;;;;;;5089191;27;20447;-75
2022/05/05 02:42:09;;;;;;;;;;;16.20;60.90;;;;;;5085764;27;19931;-75
2022/05/05 02:44:39;;;;;;;;;;;16.20;60.90;;;;;;5089410;27;20409;-74
2022/05/05 02:47:10;;;;;;;;;;;16.20;60.90;;;;;;5099570;27;19950;-76
2022/05/05 02:49:40;;;;;;;;;;;16.20;60.90;;;;;;5095019;27;19963;-73
2022/05/05 02:52:09;;;;;;;;;;;16.20;61.00;;;;;;5101242;27;19964;-75
2022/05/05 02:54:47;;;;;;;;;;;16.20;60.90;;;;;;5099504;27;19919;-75
2022/05/05 02:57:25;;;;;;;;;;;16.10;60.90;;;;;;5094570;28;19920;-74
2022/05/05 02:59:56;;;;;;;;;;;16.20;61.00;;;;;;5089945;27;20048;-74
2022/05/05 03:02:24;;;;;;;;;;;16.20;60.90;;;;;;5108436;28;19923;-74
2022/05/05 03:04:52;;;;;;;;;;;16.40;61.20;;;;;;5096348;28;19924;-74
2022/05/05 03:07:25;;;;;;;;;;;16.20;60.90;;;;;;5093053;28;19924;-74
2022/05/05 03:09:52;;;;;;;;;;;16.20;61.00;;;;;;5082512;28;19931;-74
2022/05/05 03:12:21;;;;;;;;;;;16.20;60.90;;;;;;5095895;28;19941;-75
2022/05/05 03:14:47;;;;;;;;;;;16.20;60.90;;;;;;5087586;27;20298;-74
2022/05/05 03:17:17;;;;;;;;;;;16.20;60.90;;;;;;5089205;28;19927;-73
2022/05/05 03:19:52;;;;;;;;;;;16.20;60.90;;;;;;5092827;28;19941;-75
2022/05/05 03:22:24;;;;;;;;;;;16.20;60.90;;;;;;5088723;28;19923;-74
2022/05/05 03:24:54;;;;;;;;;;;16.20;60.90;;;;;;5084824;28;19927;-75
2022/05/05 03:27:24;;;;;;;;;;;16.20;60.90;;;;;;5078329;28;19927;-74
2022/05/05 03:29:51;;;;;;;;;;;16.20;61.00;;;;;;5082720;28;19920;-74
2022/05/05 03:32:20;;;;;;;;;;;16.10;60.80;;;;;;5083852;27;19924;-76
2022/05/05 03:34:56;;;;;;;;;;;16.20;60.90;;;;;;5083639;27;20580;-74
2022/05/05 03:37:28;;;;;;;;;;;16.20;60.90;;;;;;5089339;27;19920;-74
2022/05/05 03:39:58;;;;;;;;;;;16.20;60.90;;;;;;5080792;28;19973;-75
2022/05/05 03:42:25;;;;;;;;;;;16.20;60.90;;;;;;5085588;27;19960;-74
2022/05/05 03:45:11;;;;;;;;;;;16.20;60.90;;;;;;5086610;27;19927;-74
2022/05/05 03:47:41;;;;;;;;;;;16.20;60.90;;;;;;5094425;27;19923;-74
2022/05/05 03:50:17;;;;;;;;;;;16.20;60.90;;;;;;5091384;28;19920;-74
2022/05/05 03:53:02;;;;;;;;;;;16.10;60.80;;;;;;5088116;28;20366;-74
2022/05/05 03:55:30;;;;;;;;;;;16.20;60.90;;;;;;5095299;28;20004;-75
2022/05/05 03:57:57;;;;;;;;;;;16.20;60.90;;;;;;5087155;28;19923;-74
2022/05/05 04:00:25;;;;;;;;;;;16.20;60.90;;;;;;5087698;28;20367;-73
2022/05/05 04:06:04;;;;;;;;;;;16.10;60.80;;;;;;5087348;28;20457;-74
2022/05/05 04:08:32;;;;;;;;;;;16.10;60.80;;;;;;5103792;28;19934;-75
2022/05/05 04:11:02;;;;;;;;;;;16.10;60.80;;;;;;5090755;28;19920;-75
2022/05/05 04:13:28;;;;;;;;;;;16.20;60.90;;;;;;5086716;28;19928;-74
2022/05/05 04:16:00;;;;;;;;;;;16.10;60.80;;;;;;5078914;27;19957;-73
2022/05/05 04:18:39;;;;;;;;;;;16.10;60.80;;;;;;5088141;28;19927;-74
2022/05/05 04:21:09;;;;;;;;;;;16.10;60.90;;;;;;5083623;28;19930;-75
2022/05/05 04:23:43;;;;;;;;;;;16.10;60.90;;;;;;5088787;28;19947;-74
2022/05/05 04:26:13;;;;;;;;;;;16.10;60.90;;;;;;5085792;28;19976;-75
2022/05/05 04:28:40;;;;;;;;;;;16.10;60.90;;;;;;5088074;28;20112;-75
2022/05/05 04:31:10;;;;;;;;;;;16.10;61.00;;;;;;5085634;28;19961;-77
2022/05/05 04:33:48;;;;;;;;;;;16.10;61.00;;;;;;5093152;28;19926;-74
2022/05/05 04:36:25;;;;;;;;;;;16.10;61.00;;;;;;5086033;28;19927;-75
2022/05/05 04:38:52;;;;;;;;;;;16.20;61.10;;;;;;5087564;28;20464;-74
2022/05/05 04:41:22;;;;;;;;;;;16.10;61.00;;;;;;5090030;28;19942;-77
2022/05/05 04:43:50;;;;;;;;;;;16.10;61.10;;;;;;5083753;27;19928;-74
2022/05/05 04:46:24;;;;;;;;;;;16.10;61.10;;;;;;5092199;28;20435;-76
2022/05/05 04:48:53;;;;;;;;;;;16.10;61.10;;;;;;5131535;27;19930;-74
2022/05/05 04:51:38;;;;;;;;;;;16.10;61.10;;;;;;5094632;28;19942;-77
2022/05/05 04:54:15;;;;;;;;;;;16.10;61.10;;;;;;5090258;28;19920;-75
2022/05/05 04:56:42;;;;;;;;;;;16.10;61.10;;;;;;5093637;28;19926;-74
2022/05/05 04:59:13;;;;;;;;;;;16.10;61.10;;;;;;5095545;28;19926;-74
2022/05/05 05:01:39;;;;;;;;;;;16.10;61.10;;;;;;5113506;28;19924;-74
2022/05/05 05:04:18;;;;;;;;;;;16.20;61.20;;;;;;5108660;28;19987;-76
2022/05/05 05:06:59;;;;;;;;;;;16.10;61.10;;;;;;5080624;28;19931;-76
2022/05/05 05:09:26;;;;;;;;;;;16.10;61.10;;;;;;5093574;28;19926;-75
2022/05/05 05:12:04;;;;;;;;;;;16.20;61.20;;;;;;5091407;28;20019;-74
2022/05/05 05:14:34;;;;;;;;;;;16.10;61.20;;;;;;5086701;28;19924;-74
2022/05/05 05:17:06;;;;;;;;;;;16.10;61.20;;;;;;5096985;28;20349;-75
2022/05/05 05:19:36;;;;;;;;;;;16.10;61.20;;;;;;5092674;28;19931;-74
2022/05/05 05:22:05;;;;;;;;;;;16.10;61.20;;;;;;5091536;28;19934;-76
2022/05/05 05:24:38;;;;;;;;;;;16.10;61.20;;;;;;5097112;28;19923;-75
2022/05/05 05:27:13;;;;;;;;;;;16.10;61.20;;;;;;5088754;28;20445;-74
2022/05/05 05:29:51;;;;;;;;;;;16.10;61.20;;;;;;5087744;28;20425;-78
2022/05/05 05:32:20;;;;;;;;;;;16.10;61.20;;;;;;5095227;28;19927;-74
2022/05/05 05:34:53;;;;;;;;;;;16.10;61.20;;;;;;5084248;27;19928;-77
2022/05/05 05:37:21;;;;;;;;;;;16.10;61.20;;;;;;5090729;27;19974;-77
2022/05/05 05:39:49;;;;;;;;;;;16.20;61.30;;;;;;5103134;27;19928;-74
2022/05/05 05:42:16;;;;;;;;;;;16.10;61.20;;;;;;5096496;28;19959;-75
2022/05/05 05:44:50;;;;;;;;;;;16.10;61.20;;;;;;5092920;28;20339;-75
2022/05/05 05:47:17;;;;;;;;;;;16.10;61.30;;;;;;5100921;28;20401;-75
2022/05/05 05:49:49;;;;;;;;;;;16.10;61.30;;;;;;5091712;27;19924;-77
2022/05/05 05:52:19;;;;;;;;;;;16.10;61.20;;;;;;5094306;28;19924;-75
2022/05/05 05:54:47;;;;;;;;;;;16.10;61.20;;;;;;5098738;28;20378;-75
2022/05/05 05:57:14;;;;;;;;;;;16.10;61.20;;;;;;5096485;28;19924;-75
2022/05/05 05:59:55;;;;;;;;;;;16.20;61.40;;;;;;5101059;27;20552;-74
2022/05/05 06:05:17;;;;;;;;;;;16.10;61.20;;;;;;5093883;27;19920;-77
2022/05/05 06:07:57;;;;;;;;;;;16.10;61.30;;;;;;5089362;28;19931;-77
2022/05/05 06:10:25;;;;;;;;;;;16.10;61.30;;;;;;5083311;28;19926;-76
2022/05/05 06:12:52;;;;;;;;;;;16.10;61.50;;;;;;5093877;28;20461;-75
2022/05/05 06:15:19;;;;;;;;;;;16.00;62.20;;;;;;5087820;28;19943;-75
2022/05/05 06:17:49;;;;;;;;;;;15.90;63.10;;;;;;5091708;28;19920;-76
2022/05/05 06:20:16;;;;;;;;;;;15.80;63.10;;;;;;5090654;28;19934;-74
2022/05/05 06:23:00;;;;;;;;;;;15.80;62.70;;;;;;5093296;28;19924;-75
2022/05/05 06:25:30;;;;;;;;;;;15.70;62.30;;;;;;5090350;28;19923;-75
2022/05/05 06:28:00;;;;;;;;;;;15.60;62.00;;;;;;5093010;28;19986;-75
2022/05/05 06:30:33;;;;;;;;;;;15.60;62.10;;;;;;5092848;27;19924;-74
2022/05/05 06:33:09;;;;;;;;;;;15.60;62.30;;;;;;5085654;27;20507;-75
2022/05/05 06:35:52;;;;;;;;;;;15.60;62.00;;;;;;5099515;27;19923;-74
2022/05/05 06:38:22;;;;;;;;;;;15.50;62.10;;;;;;5099291;28;19927;-74
2022/05/05 06:41:03;;;;;;;;;;;15.60;62.00;;;;;;5089028;28;19927;-77
2022/05/05 06:43:48;;;;;;;;;;;15.50;62.30;;;;;;5090667;28;20072;-76
2022/05/05 06:46:15;;;;;;;;;;;15.50;62.90;;;;;;5099339;27;19964;-75
2022/05/05 06:48:42;;;;;;;;;;;15.50;62.80;;;;;;5093427;27;19926;-77
2022/05/05 06:51:15;;;;;;;;;;;15.50;62.60;;;;;;5097809;27;20362;-75
2022/05/05 06:53:53;;;;;;;;;;;15.50;62.60;;;;;;5093580;28;19934;-78
2022/05/05 06:56:25;;;;;;;;;;;15.50;63.00;;;;;;5108586;27;19923;-76
2022/05/05 06:58:53;;;;;;;;;;;15.50;63.70;;;;;;5091536;28;20030;-78
2022/05/05 07:06:55;;;;;;;;;;;15.50;63.70;;;;;;5128300;27;20047;-76
2022/05/05 07:12:24;;;;;;;;;;;15.50;63.20;;;;;;5032972;28;19957;-77
2022/05/05 07:14:51;;;;;;;;;;;15.50;62.70;;;;;;5086785;27;19926;-78
2022/05/05 07:17:19;;;;;;;;;;;15.50;62.50;;;;;;5096498;27;20039;-75
2022/05/05 07:19:52;;;;;;;;;;;15.50;62.30;;;;;;5093219;28;19935;-77
2022/05/05 07:22:24;;;;;;;;;;;15.50;62.40;;;;;;5090187;27;19931;-78
2022/05/05 07:25:00;;;;;;;;;;;15.50;62.40;;;;;;5091971;28;20006;-75
2022/05/05 07:27:28;;;;;;;;;;;15.60;62.40;;;;;;5092688;27;19927;-77
2022/05/05 07:29:55;;;;;;;;;;;15.80;63.20;;;;;;5087993;27;19927;-75
2022/05/05 07:32:24;;;;;;;;;;;15.60;63.20;;;;;;5080876;28;20321;-76
2022/05/05 07:34:51;;;;;;;;;;;15.60;63.40;;;;;;5091403;27;19964;-74
2022/05/05 07:37:18;;;;;;;;;;;15.60;63.70;;;;;;5085318;27;19928;-75
2022/05/05 07:39:46;;;;;;;;;;;15.70;63.70;;;;;;5090178;27;19934;-78
2022/05/05 07:42:14;;;;;;;;;;;15.70;63.20;;;;;;5090671;27;19920;-77
2022/05/05 07:44:45;;;;;;;;;;;15.70;62.80;;;;;;5092594;28;19923;-76
2022/05/05 07:47:17;;;;;;;;;;;15.60;62.40;;;;;;5096388;28;19926;-75
2022/05/05 07:49:48;;;;;;;;;;;15.70;62.40;;;;;;5092456;28;19927;-75
2022/05/05 07:52:17;;;;;;;;;;;15.70;62.40;;;;;;5087726;27;19920;-78
2022/05/05 07:54:44;;;;;;;;;;;15.80;62.40;;;;;;5092208;28;19926;-75
2022/05/05 07:57:12;;;;;;;;;;;15.80;62.20;;;;;;5081196;27;20180;-80
2022/05/05 07:59:42;;;;;;;;;;;15.80;62.00;;;;;;5116128;27;19930;-78
2022/05/05 08:02:16;;;;;;;;;;;15.90;62.20;;;;;;5095356;28;19927;-78
2022/05/05 08:04:45;;;;;;;;;;;15.90;61.50;;;;;;5090872;27;19933;-77
2022/05/05 08:07:13;;;;;;;;;;;15.90;61.50;;;;;;5094502;28;19923;-79
2022/05/05 08:09:51;;;;;;;;;;;15.90;61.80;;;;;;5096518;28;20582;-79
2022/05/05 08:12:18;;;;;;;;;;;16.00;61.70;;;;;;5093772;28;19920;-79
2022/05/05 08:14:50;;;;;;;;;;;15.90;61.40;;;;;;5089250;28;19955;-80
2022/05/05 08:17:16;;;;;;;;;;;16.00;61.70;;;;;;5088945;28;19928;-78
2022/05/05 08:19:51;;;;;;;;;;;16.00;61.70;;;;;;5092021;28;19927;-80
2022/05/05 08:22:24;;;;;;;;;;;16.10;61.70;;;;;;5084852;28;19920;-80
2022/05/05 08:30:27;;;;;;;;;;;16.10;60.70;;;;;;5092488;28;19996;-78
2022/05/05 08:33:13;;;;;;;;;;;16.20;60.70;;;;;;5089992;27;20019;-77
2022/05/05 08:35:41;;;;;;;;;;;16.20;60.90;;;;;;5093288;27;19924;-78
2022/05/05 08:38:17;;;;;;;;;;;16.20;60.90;;;;;;5093547;28;19920;-78
2022/05/05 08:41:03;;;;;;;;;;;16.20;60.30;;;;;;5092728;28;19931;-78
2022/05/05 08:43:32;;;;;;;;;;;16.20;60.50;;;;;;5088924;28;19919;-79
2022/05/05 08:46:01;;;;;;;;;;;16.30;60.50;;;;;;5088179;28;19950;-78
2022/05/05 08:48:28;;;;;;;;;;;16.30;60.40;;;;;;5093278;27;19920;-78
2022/05/05 08:50:58;;;;;;;;;;;16.30;60.50;;;;;;5090619;28;19923;-78
2022/05/05 08:53:25;;;;;;;;;;;16.30;60.20;;;;;;5093575;28;20445;-77
2022/05/05 08:55:53;;;;;;;;;;;16.30;60.10;;;;;;5088579;28;20053;-78
2022/05/05 08:58:20;;;;;;;;;;;16.40;60.10;;;;;;5084796;28;19963;-76
2022/05/05 09:01:04;;;;;;;;;;;16.40;59.90;;;;;;5095936;28;20277;-75
2022/05/05 09:03:33;;;;;;;;;;;16.40;59.90;;;;;;5104375;28;19963;-76
2022/05/05 09:06:01;;;;;;;;;;;16.40;60.20;;;;;;5105017;28;19938;-77
2022/05/05 09:08:29;;;;;;;;;;;16.50;60.50;;;;;;5091235;28;19920;-78
2022/05/05 09:11:05;;;;;;;;;;;16.50;60.50;;;;;;5089496;28;20303;-77
2022/05/05 09:13:42;;;;;;;;;;;16.50;60.50;;;;;;5086617;28;20306;-76
2022/05/05 09:16:23;;;;;;;;;;;16.50;60.40;;;;;;5092299;28;19920;-76
2022/05/05 09:18:51;;;;;;;;;;;16.50;60.60;;;;;;5095123;28;19919;-76
2022/05/05 09:21:32;;;;;;;;;;;16.50;60.40;;;;;;5094930;28;19927;-75
2022/05/05 09:26:51;;;;;;;;;;;16.60;60.70;;;;;;5089614;28;19920;-76
2022/05/05 09:29:25;;;;;;;;;;;16.60;60.80;;;;;;5087206;28;20431;-76
2022/05/05 09:31:56;;;;;;;;;;;16.60;60.70;;;;;;5089982;28;20018;-78
2022/05/05 09:34:24;;;;;;;;;;;16.60;60.90;;;;;;5087683;28;19927;-76
2022/05/05 09:36:51;;;;;;;;;;;16.60;60.90;;;;;;5095598;28;19927;-78
2022/05/05 09:39:19;;;;;;;;;;;16.70;61.20;;;;;;5088447;28;20057;-76
2022/05/05 09:41:57;;;;;;;;;;;16.90;61.40;;;;;;5092883;28;20392;-75
2022/05/05 09:47:34;;;;;;;;;;;16.70;61.20;;;;;;5106238;27;20008;-76
2022/05/05 09:50:00;;;;;;;;;;;16.70;61.10;;;;;;5088195;28;19920;-78
2022/05/05 09:58:10;;;;;;;;;;;16.80;61.00;;;;;;5093089;28;20058;-78
2022/05/05 10:00:48;;;;;;;;;;;16.80;60.80;;;;;;5080414;28;20591;-77
2022/05/05 10:06:19;;;;;;;;;;;16.80;60.90;;;;;;5089887;28;19920;-76
2022/05/05 10:08:53;;;;;;;;;;;16.80;60.90;;;;;;5086274;28;19920;-78
2022/05/05 10:11:20;;;;;;;;;;;16.80;60.90;;;;;;5094393;28;19978;-78
2022/05/05 10:13:47;;;;;;;;;;;16.90;61.10;;;;;;5081818;28;19920;-78
2022/05/05 10:16:20;;;;;;;;;;;16.90;61.20;;;;;;5094799;28;19977;-76
2022/05/05 10:18:53;;;;;;;;;;;16.90;61.30;;;;;;5092677;27;19927;-77
2022/05/05 10:21:38;;;;;;;;;;;16.90;61.50;;;;;;5097647;28;19934;-78
2022/05/05 10:24:10;;;;;;;;;;;16.90;61.60;;;;;;5097337;28;19930;-77
2022/05/05 10:26:49;;;;;;;;;;;16.90;61.60;;;;;;5088840;27;20388;-77
2022/05/05 10:29:31;;;;;;;;;;;16.90;61.50;;;;;;5088882;28;20013;-78
2022/05/05 10:32:09;;;;;;;;;;;17.00;61.70;;;;;;5093346;27;19962;-77
2022/05/05 10:34:41;;;;;;;;;;;17.00;61.90;;;;;;5088440;28;19920;-78
2022/05/05 10:37:32;;;;;;;;;;;17.10;62.10;;;;;;5090466;27;20609;-76
2022/05/05 10:40:03;;;;;;;;;;;17.00;62.10;;;;;;5095789;27;19927;-76
2022/05/05 10:42:35;;;;;;;;;;;17.00;62.40;;;;;;5093423;28;19920;-76
2022/05/05 10:45:19;;;;;;;;;;;17.00;62.30;;;;;;5100647;27;20359;-77
2022/05/05 10:48:08;;;;;;;;;;;17.00;62.40;;;;;;5098996;28;19989;-77
2022/05/05 10:50:43;;;;;;;;;;;17.00;62.50;;;;;;5099400;27;19920;-78
2022/05/05 10:53:25;;;;;;;;;;;17.10;62.70;;;;;;5091993;27;19938;-77
2022/05/05 10:55:55;;;;;;;;;;;17.10;62.60;;;;;;5093392;28;20383;-76
2022/05/05 10:58:40;;;;;;;;;;;17.10;62.70;;;;;;5101683;28;19927;-78
2022/05/05 11:01:13;;;;;;;;;;;17.10;62.70;;;;;;5108811;27;19919;-77
2022/05/05 11:04:05;;;;;;;;;;;17.10;62.60;;;;;;5135054;27;19926;-78
2022/05/05 11:06:36;;;;;;;;;;;17.10;62.40;;;;;;5115193;27;19983;-76
2022/05/05 11:09:03;;;;;;;;;;;17.20;62.50;;;;;;5099160;28;19920;-76
2022/05/05 11:11:41;;;;;;;;;;;17.10;62.40;;;;;;5091541;27;19928;-77
2022/05/05 11:22:46;;;;;;;;;;;17.10;62.30;;;;;;5090472;28;19919;-76
2022/05/05 11:25:15;;;;;;;;;;;17.10;62.30;;;;;;5100114;27;19920;-75
2022/05/05 11:27:41;;;;;;;;;;;17.10;62.40;;;;;;5097785;27;20456;-75
2022/05/05 11:30:09;;;;;;;;;;;17.10;62.40;;;;;;5098537;28;20419;-74
2022/05/05 11:32:44;;;;;;;;;;;17.10;62.30;;;;;;5089828;27;19934;-76
2022/05/05 11:35:20;;;;;;;;;;;17.10;62.10;;;;;;5092172;27;19946;-76
2022/05/05 11:37:51;;;;;;;;;;;17.10;62.90;;;;;;5087840;28;19928;-76
2022/05/05 11:40:18;;;;;;;;;;;18.20;63.40;;;;;;5097679;28;19920;-76
2022/05/05 11:45:35;;;;;;;;;;;17.20;63.10;;;;;;5052342;28;19921;-76
2022/05/05 11:48:15;;;;;;;;;;;17.20;62.70;;;;;;5095666;28;19926;-77
2022/05/05 11:50:44;;;;;;;;;;;17.20;62.40;;;;;;5090770;27;20007;-75
2022/05/05 11:53:17;;;;;;;;;;;17.30;63.10;;;;;;5092688;27;19919;-76
2022/05/05 11:55:44;;;;;;;;;;;17.40;63.30;;;;;;5091258;28;20609;-79
2022/05/05 12:01:36;;;;;;;;;;;17.40;63.60;;;;;;5086149;28;20030;-77
2022/05/05 12:04:02;;;;;;;;;;;17.50;63.50;;;;;;5094330;28;19924;-76
2022/05/05 12:06:45;;;;;;;;;;;17.50;63.50;;;;;;5098065;27;19924;-78
2022/05/05 12:09:23;;;;;;;;;;;17.50;63.30;;;;;;5106910;28;20413;-76
2022/05/05 12:11:55;;;;;;;;;;;18.20;63.70;;;;;;5087051;27;19920;-78
2022/05/05 12:14:23;;;;;;;;;;;17.50;63.00;;;;;;5093211;28;19919;-76
2022/05/05 12:16:50;;;;;;;;;;;17.50;62.70;;;;;;5088138;28;19920;-75
2022/05/05 12:19:25;;;;;;;;;;;17.40;62.60;;;;;;5115292;27;19920;-75
2022/05/05 12:21:53;;;;;;;;;;;17.40;62.60;;;;;;5091831;28;19919;-76
2022/05/05 12:24:28;;;;;;;;;;;17.40;62.60;;;;;;5094970;27;19920;-78
2022/05/05 12:27:08;;;;;;;;;;;17.40;62.60;;;;;;5091213;28;20046;-76
2022/05/05 12:29:40;;;;;;;;;;;17.40;62.60;;;;;;5090936;27;19924;-76
2022/05/05 12:32:11;;;;;;;;;;;17.40;62.60;;;;;;5085096;28;19924;-78
2022/05/05 12:34:39;;;;;;;;;;;17.40;62.50;;;;;;5088839;27;19924;-76
2022/05/05 12:37:15;;;;;;;;;;;17.40;62.60;;;;;;5089384;28;19931;-76
2022/05/05 12:39:53;;;;;;;;;;;17.40;62.60;;;;;;5093307;27;19935;-76
2022/05/05 12:42:22;;;;;;;;;;;17.40;62.60;;;;;;5087299;28;20019;-76
2022/05/05 12:45:07;;;;;;;;;;;17.40;62.60;;;;;;5085399;28;19930;-75
2022/05/05 12:47:40;;;;;;;;;;;17.30;62.60;;;;;;5093058;28;19926;-76
2022/05/05 12:50:29;;;;;;;;;;;17.30;62.50;;;;;;5094887;28;20401;-75
2022/05/05 13:01:42;;;;;;;;;;;18.30;63.60;;;;;;5106384;28;19927;-76
2022/05/05 13:04:19;;;;;;;;;;;17.30;62.60;;;;;;5097141;28;19938;-75
2022/05/05 13:06:47;;;;;;;;;;;17.30;62.90;;;;;;5097474;28;20011;-75
2022/05/05 13:09:13;;;;;;;;;;;18.10;63.70;;;;;;5087777;28;19984;-76
2022/05/05 13:11:44;;;;;;;;;;;17.30;62.80;;;;;;5089733;28;19955;-76
2022/05/05 13:14:14;;;;;;;;;;;17.30;62.60;;;;;;5095090;28;20421;-78
2022/05/05 13:16:42;;;;;;;;;;;17.30;62.60;;;;;;5095259;28;19964;-77
2022/05/05 13:19:15;;;;;;;;;;;17.20;62.60;;;;;;5081965;28;19999;-78
2022/05/05 13:21:43;;;;;;;;;;;17.30;62.70;;;;;;5093573;28;19920;-77
2022/05/05 13:24:12;;;;;;;;;;;17.30;62.70;;;;;;5093591;28;19920;-77
2022/05/05 13:26:40;;;;;;;;;;;17.30;62.70;;;;;;5092024;28;20018;-77
2022/05/05 13:29:08;;;;;;;;;;;17.30;62.70;;;;;;5086327;28;19934;-77
2022/05/05 13:31:34;;;;;;;;;;;17.30;62.60;;;;;;5081226;28;19959;-79
2022/05/05 13:34:07;;;;;;;;;;;17.30;62.70;;;;;;5089234;28;19984;-77
2022/05/05 13:36:42;;;;;;;;;;;17.30;62.70;;;;;;5086812;28;19920;-76
2022/05/05 13:39:09;;;;;;;;;;;17.30;62.80;;;;;;5087421;28;19927;-78
2022/05/05 13:41:35;;;;;;;;;;;17.30;62.70;;;;;;5090382;28;19919;-75
2022/05/05 13:44:04;;;;;;;;;;;17.30;62.70;;;;;;5086405;28;19924;-77
2022/05/05 13:46:40;;;;;;;;;;;17.30;62.70;;;;;;5085370;28;19973;-77
2022/05/05 13:49:10;;;;;;;;;;;17.30;62.70;;;;;;5084722;28;20018;-76
2022/05/05 13:51:37;;;;;;;;;;;17.30;62.80;;;;;;5087489;28;19931;-76
2022/05/05 13:54:09;;;;;;;;;;;17.30;62.70;;;;;;5091758;28;20294;-76
2022/05/05 13:56:46;;;;;;;;;;;17.30;62.80;;;;;;5089469;27;19947;-78
2022/05/05 13:59:15;;;;;;;;;;;17.30;62.70;;;;;;5088294;27;20676;-76
2022/05/05 14:01:56;;;;;;;;;;;17.30;62.70;;;;;;5095281;27;19947;-77
2022/05/05 14:04:25;;;;;;;;;;;17.30;63.50;;;;;;5093315;27;20422;-78
2022/05/05 14:06:57;;;;;;;;;;;17.30;62.70;;;;;;5091793;28;19955;-76
2022/05/05 14:12:15;;;;;;;;;;;17.20;62.60;;;;;;5093225;28;19920;-76
2022/05/05 14:14:42;;;;;;;;;;;17.20;62.60;;;;;;5096026;28;19930;-78
2022/05/05 14:17:20;;;;;;;;;;;17.20;62.60;;;;;;5097046;28;20350;-77
2022/05/05 14:19:47;;;;;;;;;;;17.20;62.70;;;;;;5097222;27;20366;-75
2022/05/05 14:22:13;;;;;;;;;;;18.10;63.60;;;;;;5092754;28;19955;-76
2022/05/05 14:24:47;;;;;;;;;;;17.20;62.60;;;;;;5097926;28;19973;-77
2022/05/05 14:27:14;;;;;;;;;;;17.20;62.70;;;;;;5086843;27;19924;-75
2022/05/05 14:29:50;;;;;;;;;;;17.20;62.60;;;;;;5088678;27;19920;-79
2022/05/05 14:32:18;;;;;;;;;;;17.20;62.60;;;;;;5096271;27;19920;-78
2022/05/05 14:34:44;;;;;;;;;;;17.20;62.60;;;;;;5093596;27;20006;-79
2022/05/05 14:37:14;;;;;;;;;;;17.20;62.60;;;;;;5092565;27;19920;-76
2022/05/05 14:39:46;;;;;;;;;;;17.20;62.70;;;;;;5091304;27;19920;-79
2022/05/05 14:42:16;;;;;;;;;;;17.20;62.70;;;;;;5088425;27;19920;-77
2022/05/05 14:44:58;;;;;;;;;;;17.20;62.80;;;;;;5094596;28;19920;-79
2022/05/05 14:47:27;;;;;;;;;;;17.20;62.80;;;;;;5089064;28;19924;-77
2022/05/05 14:49:56;;;;;;;;;;;17.20;63.20;;;;;;5092545;27;19939;-79
2022/05/05 14:52:25;;;;;;;;;;;17.20;63.20;;;;;;5127078;27;19927;-76
2022/05/05 14:55:10;;;;;;;;;;;17.80;63.80;;;;;;5100887;27;19926;-78
2022/05/05 14:57:50;;;;;;;;;;;17.20;63.30;;;;;;5087621;27;19931;-80
2022/05/05 15:00:25;;;;;;;;;;;17.20;63.30;;;;;;5104476;27;19931;-78
2022/05/05 15:02:56;;;;;;;;;;;17.20;63.30;;;;;;5111380;27;19919;-78
2022/05/05 15:05:25;;;;;;;;;;;17.20;63.20;;;;;;5102589;27;19969;-79
2022/05/05 15:07:52;;;;;;;;;;;17.20;63.20;;;;;;5099656;27;19934;-77
2022/05/05 15:10:19;;;;;;;;;;;17.20;63.20;;;;;;5102357;27;19931;-78
2022/05/05 15:12:52;;;;;;;;;;;17.20;63.30;;;;;;5077673;28;19923;-77
2022/05/05 15:15:19;;;;;;;;;;;17.20;63.20;;;;;;5093164;27;19919;-78
2022/05/05 15:17:46;;;;;;;;;;;17.90;64.00;;;;;;5096788;27;19927;-76
2022/05/05 15:20:18;;;;;;;;;;;17.20;63.20;;;;;;5091449;27;19932;-78
2022/05/05 15:22:57;;;;;;;;;;;17.20;63.10;;;;;;5082818;27;21030;-78
2022/05/05 15:25:25;;;;;;;;;;;17.20;63.20;;;;;;5098408;27;19931;-77
2022/05/05 15:27:52;;;;;;;;;;;17.30;63.20;;;;;;5114137;27;20611;-79
2022/05/05 15:30:19;;;;;;;;;;;17.90;63.90;;;;;;5097079;27;19958;-80
2022/05/05 15:33:04;;;;;;;;;;;17.20;63.10;;;;;;5124797;27;19947;-78
2022/05/05 15:35:32;;;;;;;;;;;17.20;63.10;;;;;;5128128;27;19915;-79
2022/05/05 15:38:03;;;;;;;;;;;17.20;63.10;;;;;;5115343;27;19946;-79
2022/05/05 15:40:30;;;;;;;;;;;17.20;63.10;;;;;;5110327;27;19930;-76
2022/05/05 15:43:14;;;;;;;;;;;17.20;63.10;;;;;;5108820;27;20025;-79
2022/05/05 15:45:51;;;;;;;;;;;17.20;63.00;;;;;;5113400;27;19923;-78
2022/05/05 15:48:18;;;;;;;;;;;17.30;63.20;;;;;;5108690;27;19953;-78
2022/05/05 15:50:49;;;;;;;;;;;17.20;63.00;;;;;;5129083;27;19926;-76
2022/05/05 15:53:16;;;;;;;;;;;17.60;63.50;;;;;;5123945;27;20011;-78